createdAt,value
2019-01-18T00:01:24.049Z,248.87
2019-01-18T00:03:51.674Z,221.87
2019-01-18T00:06:19.279Z,205.37
2019-01-18T00:08:46.823Z,247.37
2019-01-18T00:11:14.400Z,206.13
2019-01-18T00:13:42.057Z,193.20
2019-01-18T00:16:09.584Z,186.77
2019-01-18T00:18:37.048Z,204.53
2019-01-18T00:21:04.584Z,184.67
2019-01-18T00:23:32.180Z,229.50
2019-01-18T00:25:59.626Z,197.57
2019-01-18T00:28:27.192Z,228.63
2019-01-18T00:30:54.822Z,229.13
2019-01-18T00:33:22.445Z,214.83
2019-01-18T00:35:50.265Z,217.33
2019-01-18T00:38:17.740Z,205.57
2019-01-18T00:40:45.350Z,218.33
2019-01-18T00:43:12.919Z,215.83
2019-01-18T00:45:40.577Z,208.53
2019-01-18T00:48:08.271Z,212.27
2019-01-18T00:50:35.964Z,197.27
2019-01-18T00:53:03.777Z,199.73
2019-01-18T00:55:31.558Z,214.47
2019-01-18T00:57:59.088Z,205.43
2019-01-18T01:00:27.847Z,210.93
2019-01-18T01:02:55.574Z,191.50
2019-01-18T01:05:24.014Z,218.43
2019-01-18T01:07:51.654Z,209.73
2019-01-18T01:10:19.376Z,215.63
2019-01-18T01:12:47.044Z,192.50
2019-01-18T01:15:16.520Z,210.60
2019-01-18T01:17:44.158Z,218.83
2019-01-18T01:20:15.604Z,218.80
2019-01-18T01:22:43.419Z,212.87
2019-01-18T01:25:11.290Z,227.27
2019-01-18T01:27:39.317Z,208.70
2019-01-18T01:30:11.154Z,219.73
2019-01-18T01:32:38.746Z,218.30
2019-01-18T01:35:06.661Z,187.50
2019-01-18T01:37:34.425Z,215.30
2019-01-18T01:40:02.009Z,222.37
2019-01-18T01:42:29.471Z,206.27
2019-01-18T01:44:56.972Z,213.03
2019-01-18T01:47:24.461Z,210.50
2019-01-18T01:49:51.976Z,201.50
2019-01-18T01:52:19.382Z,236.47
2019-01-18T01:54:47.346Z,224.13
2019-01-18T01:57:14.869Z,254.27
2019-01-18T01:59:42.414Z,241.40
2019-01-18T02:02:09.956Z,227.53
2019-01-18T02:04:37.526Z,243.80
2019-01-18T02:07:05.165Z,192.53
2019-01-18T02:09:32.706Z,243.87
2019-01-18T02:12:00.286Z,242.33
2019-01-18T02:14:27.903Z,204.37
2019-01-18T02:16:55.367Z,246.83
2019-01-18T02:19:22.909Z,246.17
2019-01-18T02:21:50.632Z,242.30
2019-01-18T02:24:18.324Z,233.53
2019-01-18T02:26:46.004Z,240.03
2019-01-18T02:29:13.725Z,223.57
2019-01-18T02:31:41.279Z,254.90
2019-01-18T02:34:08.800Z,247.70
2019-01-18T02:36:36.840Z,240.00
2019-01-18T02:39:07.424Z,241.10
2019-01-18T02:41:34.988Z,236.27
2019-01-18T02:44:02.521Z,269.82
2019-01-18T02:46:29.958Z,238.03
2019-01-18T02:48:57.393Z,251.17
2019-01-18T02:51:24.877Z,249.23
2019-01-18T02:53:52.435Z,227.63
2019-01-18T02:56:20.207Z,247.93
2019-01-18T02:58:47.769Z,206.60
2019-01-18T03:01:15.279Z,223.70
2019-01-18T03:03:42.783Z,243.10
2019-01-18T03:06:10.257Z,204.17
2019-01-18T03:08:37.900Z,202.50
2019-01-18T03:11:05.491Z,262.77
2019-01-18T03:13:33.115Z,247.93
2019-01-18T03:16:00.811Z,210.20
2019-01-18T03:18:28.371Z,189.27
2019-01-18T03:20:55.878Z,141.10
2019-01-18T03:23:23.347Z,191.57
2019-01-18T03:25:50.889Z,177.43
2019-01-18T03:28:18.358Z,136.60
2019-01-18T03:30:45.906Z,161.07
2019-01-18T03:33:13.424Z,177.07
2019-01-18T03:35:40.945Z,155.27
2019-01-18T03:38:08.715Z,141.30
2019-01-18T03:40:36.524Z,176.30
2019-01-18T03:43:04.133Z,149.50
2019-01-18T03:45:31.650Z,168.87
2019-01-18T03:47:59.161Z,158.20
2019-01-18T03:50:27.171Z,156.60
2019-01-18T03:52:54.708Z,150.10
2019-01-18T03:55:22.511Z,161.43
2019-01-18T03:57:50.464Z,141.00
2019-01-18T04:00:25.990Z,174.67
2019-01-18T04:02:50.024Z,179.93
2019-01-18T04:05:17.601Z,153.23
2019-01-18T04:07:45.155Z,165.37
2019-01-18T04:10:14.610Z,170.27
2019-01-18T04:12:42.477Z,146.33
2019-01-18T04:15:12.791Z,144.43
2019-01-18T04:17:40.318Z,162.07
2019-01-18T04:20:09.272Z,147.23
2019-01-18T04:22:37.101Z,182.57
2019-01-18T04:25:07.173Z,167.13
2019-01-18T04:27:34.958Z,187.60
2019-01-18T04:30:03.919Z,166.23
2019-01-18T04:32:31.454Z,161.50
2019-01-18T04:34:59.031Z,174.80
2019-01-18T04:37:26.667Z,159.33
2019-01-18T04:39:54.229Z,177.90
2019-01-18T04:42:21.850Z,161.80
2019-01-18T04:44:49.367Z,154.10
2019-01-18T04:47:16.819Z,132.43
2019-01-18T04:49:44.368Z,120.37
2019-01-18T04:52:11.963Z,156.80
2019-01-18T04:54:39.533Z,163.63
2019-01-18T04:57:07.124Z,122.00
2019-01-18T04:59:34.876Z,158.00
2019-01-18T05:02:02.466Z,132.37
2019-01-18T05:04:30.111Z,107.83
2019-01-18T05:06:57.845Z,133.13
2019-01-18T05:09:25.552Z,126.10
2019-01-18T05:11:53.089Z,113.03
2019-01-18T05:14:20.602Z,106.03
2019-01-18T05:16:48.268Z,110.63
2019-01-18T05:19:15.783Z,105.50
2019-01-18T05:21:43.469Z,77.77
2019-01-18T05:24:11.007Z,109.47
2019-01-18T05:26:38.561Z,113.73
2019-01-18T05:29:06.091Z,94.73
2019-01-18T05:31:33.689Z,100.03
2019-01-18T05:34:01.819Z,88.00
2019-01-18T05:36:29.335Z,105.80
2019-01-18T05:38:56.842Z,104.43
2019-01-18T05:41:24.300Z,92.50
2019-01-18T05:43:51.883Z,105.87
2019-01-18T05:46:19.330Z,110.67
2019-01-18T05:48:47.019Z,128.67
2019-01-18T05:51:14.747Z,96.37
2019-01-18T05:53:42.917Z,131.27
2019-01-18T05:56:10.538Z,106.63
2019-01-18T05:58:38.188Z,117.33
2019-01-18T06:01:08.506Z,114.97
2019-01-18T06:03:36.218Z,99.20
2019-01-18T06:06:04.789Z,109.03
2019-01-18T06:08:32.317Z,128.60
2019-01-18T06:11:00.021Z,115.97
2019-01-18T06:13:28.243Z,106.50
2019-01-18T06:15:56.110Z,95.33
2019-01-18T06:18:24.058Z,113.27
2019-01-18T06:20:52.743Z,121.73
2019-01-18T06:23:20.616Z,132.03
2019-01-18T06:25:48.214Z,93.93
2019-01-18T06:28:15.736Z,87.40
2019-01-18T06:30:43.299Z,104.73
2019-01-18T06:33:10.924Z,105.77
2019-01-18T06:35:38.582Z,124.43
2019-01-18T06:38:06.283Z,154.40
2019-01-18T06:40:33.814Z,196.33
2019-01-18T06:43:01.399Z,147.73
2019-01-18T06:45:29.564Z,169.70
2019-01-18T06:47:57.069Z,230.73
2019-01-18T06:50:24.690Z,184.17
2019-01-18T06:52:52.528Z,146.43
2019-01-18T06:55:20.099Z,187.83
2019-01-18T06:57:47.597Z,185.53
2019-01-18T07:00:34.588Z,186.63
2019-01-18T07:03:02.581Z,165.13
2019-01-18T07:05:30.297Z,214.27
2019-01-18T07:07:57.753Z,173.77
2019-01-18T07:10:25.494Z,145.73
2019-01-18T07:12:53.214Z,110.43
2019-01-18T07:15:20.989Z,131.90
2019-01-18T07:17:48.606Z,116.20
2019-01-18T07:20:16.942Z,120.90
2019-01-18T07:22:45.105Z,120.57
2019-01-18T07:25:26.694Z,106.50
2019-01-18T07:27:54.369Z,121.63
2019-01-18T07:30:25.248Z,126.57
2019-01-18T07:32:53.151Z,127.53
2019-01-18T07:35:21.480Z,135.27
2019-01-18T07:37:49.148Z,125.60
2019-01-18T07:40:16.769Z,123.57
2019-01-18T07:42:44.372Z,130.77
2019-01-18T07:45:15.594Z,124.93
2019-01-18T07:47:43.291Z,132.67
2019-01-18T07:50:11.636Z,125.00
2019-01-18T07:52:39.348Z,105.53
2019-01-18T07:55:07.771Z,99.73
2019-01-18T07:57:35.477Z,117.10
2019-01-18T08:00:06.017Z,96.07
2019-01-18T08:02:33.652Z,97.47
2019-01-18T08:05:01.238Z,90.80
2019-01-18T08:07:29.061Z,88.23
2019-01-18T08:09:56.626Z,86.87
2019-01-18T08:12:24.239Z,91.50
2019-01-18T08:14:52.076Z,59.43
2019-01-18T08:17:19.792Z,98.73
2019-01-18T08:19:48.780Z,101.50
2019-01-18T08:22:16.315Z,142.30
2019-01-18T08:24:43.883Z,129.30
2019-01-18T08:27:11.607Z,108.33
2019-01-18T08:29:39.234Z,103.30
2019-01-18T08:32:06.830Z,122.83
2019-01-18T08:34:34.551Z,129.03
2019-01-18T08:37:02.080Z,128.37
2019-01-18T08:39:29.862Z,114.00
2019-01-18T08:41:57.448Z,108.33
2019-01-18T08:44:25.336Z,116.97
2019-01-18T08:46:52.950Z,100.00
2019-01-18T08:49:20.723Z,100.13
2019-01-18T08:51:52.176Z,101.67
2019-01-18T08:54:20.022Z,97.90
2019-01-18T08:56:47.583Z,106.97
2019-01-18T08:59:15.110Z,111.67
2019-01-18T09:01:42.777Z,117.33
2019-01-18T09:04:10.458Z,110.03
2019-01-18T09:06:38.221Z,102.77
2019-01-18T09:09:08.064Z,114.27
2019-01-18T09:11:36.087Z,96.53
2019-01-18T09:14:04.325Z,102.50
2019-01-18T09:16:31.894Z,88.07
2019-01-18T09:18:59.732Z,92.00
2019-01-18T09:21:27.316Z,100.57
2019-01-18T09:23:56.183Z,81.50
2019-01-18T09:26:23.881Z,93.23
2019-01-18T09:28:52.822Z,74.93
2019-01-18T09:31:20.751Z,74.70
2019-01-18T09:33:49.817Z,79.87
2019-01-18T09:36:17.531Z,79.10
2019-01-18T09:38:45.093Z,85.93
2019-01-18T09:41:12.935Z,84.33
2019-01-18T09:43:40.519Z,98.33
2019-01-18T09:46:08.195Z,80.43
2019-01-18T09:48:35.923Z,111.73
2019-01-18T09:51:03.734Z,107.20
2019-01-18T09:53:31.411Z,111.53
2019-01-18T09:55:59.365Z,125.60
2019-01-18T09:58:27.377Z,137.07
2019-01-18T10:00:55.102Z,171.83
2019-01-18T10:03:22.919Z,176.47
2019-01-18T10:05:51.388Z,158.00
2019-01-18T10:08:20.762Z,184.30
2019-01-18T10:10:49.182Z,183.43
2019-01-18T10:13:17.162Z,202.33
2019-01-18T10:15:46.071Z,207.37
2019-01-18T10:18:14.473Z,203.70
2019-01-18T10:20:42.362Z,206.40
2019-01-18T10:23:10.005Z,207.20
2019-01-18T10:25:37.727Z,197.20
2019-01-18T10:28:05.406Z,195.43
2019-01-18T10:30:33.154Z,202.90
2019-01-18T10:33:00.746Z,174.27
2019-01-18T10:35:29.790Z,173.73
2019-01-18T10:37:57.549Z,183.93
2019-01-18T10:40:25.193Z,180.57
2019-01-18T10:42:52.817Z,184.30
2019-01-18T10:45:20.901Z,167.43
2019-01-18T10:47:48.591Z,162.63
2019-01-18T10:50:18.879Z,156.53
2019-01-18T10:52:47.251Z,148.10
2019-01-18T10:55:15.025Z,151.77
2019-01-18T10:57:42.724Z,144.07
2019-01-18T11:00:34.725Z,151.07
2019-01-18T11:03:02.657Z,139.27
2019-01-18T11:05:30.310Z,143.17
2019-01-18T11:07:57.930Z,126.10
2019-01-18T11:10:25.796Z,132.53
2019-01-18T11:12:53.521Z,126.93
2019-01-18T11:15:27.081Z,135.83
2019-01-18T11:17:56.575Z,128.03
2019-01-18T11:20:33.187Z,126.23
2019-01-18T11:23:01.663Z,120.67
2019-01-18T11:25:31.950Z,134.33
2019-01-18T11:27:59.163Z,125.23
2019-01-18T11:30:27.191Z,119.70
2019-01-18T11:32:54.956Z,109.87
2019-01-18T11:35:22.742Z,113.30
2019-01-18T11:37:51.032Z,132.63
2019-01-18T11:40:20.284Z,126.97
2019-01-18T11:42:48.273Z,117.53
2019-01-18T11:45:16.711Z,114.40
2019-01-18T11:47:44.889Z,111.53
2019-01-18T11:50:23.336Z,112.57
2019-01-18T11:52:50.908Z,89.17
2019-01-18T11:55:18.703Z,92.73
2019-01-18T11:57:46.588Z,92.23
2019-01-18T12:00:17.030Z,105.90
2019-01-18T12:02:44.635Z,100.80
2019-01-18T12:05:12.427Z,94.67
2019-01-18T12:07:40.143Z,99.97
2019-01-18T12:10:10.716Z,101.80
2019-01-18T12:12:38.805Z,105.87
2019-01-18T12:15:08.032Z,103.40
2019-01-18T12:17:35.960Z,104.53
2019-01-18T12:20:05.240Z,108.50
2019-01-18T12:22:34.990Z,111.10
2019-01-18T12:25:02.945Z,88.40
2019-01-18T12:27:30.613Z,109.40
2019-01-18T12:29:58.316Z,85.97
2019-01-18T12:32:28.807Z,92.20
2019-01-18T12:34:55.468Z,90.03
2019-01-18T12:37:23.244Z,85.43
2019-01-18T12:39:50.831Z,85.67
2019-01-18T12:42:18.870Z,82.07
2019-01-18T12:44:46.659Z,76.70
2019-01-18T12:47:14.189Z,76.53
2019-01-18T12:49:41.757Z,74.80
2019-01-18T12:52:09.489Z,69.73
2019-01-18T12:54:37.093Z,65.60
2019-01-18T12:57:05.054Z,63.60
2019-01-18T12:59:33.044Z,57.63
2019-01-18T13:02:00.890Z,45.60
2019-01-18T13:04:28.725Z,45.70
2019-01-18T13:06:56.437Z,48.60
2019-01-18T13:09:24.383Z,41.23
2019-01-18T13:11:52.072Z,50.50
2019-01-18T13:14:19.787Z,58.50
2019-01-18T13:16:47.926Z,52.63
2019-01-18T13:19:21.569Z,47.70
2019-01-18T13:21:49.082Z,39.37
2019-01-18T13:24:16.673Z,48.07
2019-01-18T13:26:44.366Z,42.53
2019-01-18T13:29:12.250Z,31.07
2019-01-18T13:31:39.970Z,36.10
2019-01-18T13:34:07.730Z,38.97
2019-01-18T13:36:35.377Z,33.07
2019-01-18T13:39:06.175Z,29.87
2019-01-18T13:41:33.785Z,39.53
2019-01-18T13:44:01.490Z,33.80
2019-01-18T13:46:29.396Z,41.03
2019-01-18T13:48:57.275Z,37.30
2019-01-18T13:51:24.914Z,43.47
2019-01-18T13:53:52.640Z,40.27
2019-01-18T13:56:20.393Z,40.57
2019-01-18T13:58:48.020Z,37.27
2019-01-18T14:01:15.807Z,36.80
2019-01-18T14:03:43.590Z,32.43
2019-01-18T14:06:11.325Z,28.73
2019-01-18T14:08:39.096Z,32.50
2019-01-18T14:11:17.248Z,35.07
2019-01-18T14:13:44.920Z,29.33
2019-01-18T14:16:12.960Z,36.40
2019-01-18T14:18:41.584Z,44.47
2019-01-18T14:21:10.566Z,35.07
2019-01-18T14:23:38.183Z,37.73
2019-01-18T14:26:05.790Z,41.77
2019-01-18T14:28:33.372Z,44.73
2019-01-18T14:31:01.089Z,39.20
2019-01-18T14:33:28.857Z,34.80
2019-01-18T14:35:56.422Z,37.83
2019-01-18T14:38:25.133Z,41.80
2019-01-18T14:40:52.930Z,39.97
2019-01-18T14:43:20.517Z,39.60
2019-01-18T14:45:47.956Z,56.77
2019-01-18T14:48:15.494Z,52.77
2019-01-18T14:50:43.486Z,44.87
2019-01-18T14:53:11.516Z,44.63
2019-01-18T14:55:39.796Z,41.17
2019-01-18T14:58:10.216Z,53.63
2019-01-18T15:00:39.429Z,50.17
2019-01-18T15:03:07.140Z,34.70
2019-01-18T15:05:35.137Z,36.93
2019-01-18T15:08:02.933Z,38.33
2019-01-18T15:10:30.674Z,37.60
2019-01-18T15:13:01.169Z,38.70
2019-01-18T15:15:28.958Z,42.37
2019-01-18T15:17:56.772Z,43.03
2019-01-18T15:20:26.793Z,40.17
2019-01-18T15:22:54.585Z,50.43
2019-01-18T15:25:22.368Z,43.70
2019-01-18T15:27:50.532Z,47.50
2019-01-18T15:30:20.772Z,54.33
2019-01-18T15:32:48.262Z,42.63
2019-01-18T15:35:17.462Z,46.90
2019-01-18T15:37:45.016Z,47.33
2019-01-18T15:40:15.025Z,45.47
2019-01-18T15:42:42.599Z,46.87
2019-01-18T15:45:10.716Z,47.77
2019-01-18T15:47:38.246Z,55.93
2019-01-18T15:50:09.645Z,58.57
2019-01-18T15:52:37.283Z,75.67
2019-01-18T15:55:06.060Z,79.33
2019-01-18T15:57:33.563Z,69.17
2019-01-18T16:00:01.384Z,71.63
2019-01-18T16:02:29.137Z,52.40
2019-01-18T16:04:56.776Z,59.83
2019-01-18T16:07:24.323Z,65.87
2019-01-18T16:09:51.896Z,52.63
2019-01-18T16:12:19.478Z,52.93
2019-01-18T16:14:47.171Z,65.77
2019-01-18T16:17:22.597Z,59.97
2019-01-18T16:19:50.478Z,60.67
2019-01-18T16:22:18.147Z,68.03
2019-01-18T16:24:45.666Z,64.37
2019-01-18T16:27:13.125Z,69.43
2019-01-18T16:29:40.716Z,75.93
2019-01-18T16:32:08.324Z,80.13
2019-01-18T16:34:35.915Z,73.60
2019-01-18T16:37:03.651Z,79.43
2019-01-18T16:39:31.484Z,84.27
2019-01-18T16:41:59.175Z,81.43
2019-01-18T16:44:27.127Z,351.73
2019-01-18T16:46:54.817Z,260.47
2019-01-18T16:49:22.712Z,278.00
2019-01-18T16:51:50.501Z,220.00
2019-01-18T16:54:18.139Z,147.77
2019-01-18T16:56:45.621Z,223.47
2019-01-18T16:59:13.746Z,192.37
2019-01-18T17:01:41.401Z,217.53
2019-01-18T17:04:09.061Z,212.93
2019-01-18T17:06:36.957Z,199.93
2019-01-18T17:09:26.051Z,222.70
2019-01-18T17:11:53.568Z,164.33
2019-01-18T17:14:21.079Z,204.67
2019-01-18T17:16:48.595Z,154.00
2019-01-18T17:19:15.990Z,188.10
2019-01-18T17:21:43.438Z,159.00
2019-01-18T17:24:10.990Z,128.33
2019-01-18T17:26:38.482Z,181.67
2019-01-18T17:29:05.933Z,152.37
2019-01-18T17:31:33.577Z,154.20
2019-01-18T17:34:01.215Z,193.67
2019-01-18T17:36:35.648Z,180.37
2019-01-18T17:39:21.687Z,154.07
2019-01-18T17:42:42.241Z,125.10
2019-01-18T17:45:46.250Z,138.43
2019-01-18T17:48:26.091Z,134.00
2019-01-18T17:51:27.407Z,117.93
2019-01-18T17:54:13.407Z,110.23
2019-01-18T17:57:09.718Z,95.53
2019-01-18T18:00:24.625Z,92.83
2019-01-18T18:03:43.617Z,97.30
2019-01-18T18:06:43.997Z,103.50
2019-01-18T18:09:23.484Z,117.77
2019-01-18T18:12:17.168Z,108.13
2019-01-18T18:15:10.754Z,129.33
2019-01-18T18:17:45.016Z,133.00
2019-01-18T18:20:37.925Z,128.73
2019-01-18T18:23:53.936Z,144.40
2019-01-18T18:26:48.819Z,145.83
2019-01-18T18:29:54.009Z,134.83
2019-01-18T18:33:14.590Z,150.03
2019-01-18T18:36:24.305Z,126.20
2019-01-18T18:39:29.365Z,109.27
2019-01-18T18:42:33.770Z,128.93
2019-01-18T18:45:48.895Z,95.40
2019-01-18T18:48:50.639Z,106.40
2019-01-18T18:51:43.935Z,106.97
2019-01-18T18:54:48.128Z,101.47
2019-01-18T18:57:26.465Z,99.83
2019-01-18T19:00:41.645Z,106.80
2019-01-18T19:03:57.573Z,105.33
2019-01-18T19:07:35.640Z,104.80
2019-01-18T19:10:33.618Z,191.90
2019-01-18T19:13:45.584Z,172.70
2019-01-18T19:16:34.684Z,119.27
2019-01-18T19:19:34.464Z,141.00
2019-01-18T19:22:29.027Z,150.40
2019-01-18T19:25:37.189Z,157.77
2019-01-18T19:28:36.197Z,158.67
2019-01-18T19:32:00.704Z,153.03
2019-01-18T19:35:14.781Z,137.43
2019-01-18T19:38:28.519Z,160.87
2019-01-18T19:41:53.255Z,161.43
2019-01-18T19:44:58.085Z,160.40
2019-01-18T19:48:01.681Z,174.70
2019-01-18T19:50:59.561Z,182.73
2019-01-18T19:54:02.336Z,177.87
2019-01-18T19:57:20.495Z,196.67
2019-01-18T20:00:19.621Z,196.63
2019-01-18T20:03:17.160Z,205.93
2019-01-18T20:06:41.402Z,204.80
2019-01-18T20:09:15.978Z,206.87
2019-01-18T20:12:28.959Z,221.70
2019-01-18T20:15:12.954Z,220.10
2019-01-18T20:18:07.174Z,197.30
2019-01-18T20:21:19.877Z,226.33
2019-01-18T20:24:27.572Z,248.97
2019-01-18T20:27:25.762Z,240.50
2019-01-18T20:30:11.371Z,249.27
2019-01-18T20:32:50.349Z,220.73
2019-01-18T20:35:58.400Z,218.87
2019-01-18T20:39:16.054Z,226.57
2019-01-18T20:42:14.741Z,189.73
2019-01-18T20:45:26.026Z,227.10
2019-01-18T20:48:34.451Z,228.87
2019-01-18T20:51:39.834Z,224.70
2019-01-18T20:54:44.314Z,192.50
2019-01-18T20:57:34.905Z,192.50
2019-01-18T21:00:31.278Z,197.30
2019-01-18T21:03:42.264Z,163.33
2019-01-18T21:06:30.110Z,172.93
2019-01-18T21:09:57.348Z,141.50
2019-01-18T21:12:56.260Z,135.37
2019-01-18T21:15:43.889Z,128.33
2019-01-18T21:18:31.576Z,156.20
2019-01-18T21:21:51.923Z,150.23
2019-01-18T21:24:46.430Z,135.13
2019-01-18T21:27:52.687Z,147.40
2019-01-18T21:30:36.553Z,127.63
2019-01-18T21:33:48.376Z,147.73
2019-01-18T21:37:18.391Z,131.73
2019-01-18T21:40:27.882Z,133.47
2019-01-18T21:43:31.629Z,123.37
2019-01-18T21:46:42.430Z,127.20
2019-01-18T21:49:24.594Z,136.53
2019-01-18T21:52:35.468Z,137.30
2019-01-18T21:55:14.801Z,148.47
2019-01-18T21:58:32.788Z,145.50
2019-01-18T22:01:29.106Z,157.73
2019-01-18T22:04:43.569Z,155.60
2019-01-18T22:07:56.063Z,156.77
2019-01-18T22:10:54.438Z,147.30
2019-01-18T22:13:57.462Z,151.97
2019-01-18T22:16:54.106Z,144.03
2019-01-18T22:20:08.104Z,137.37
2019-01-18T22:23:12.528Z,134.83
2019-01-18T22:26:02.902Z,141.20
2019-01-18T22:29:24.286Z,124.23
2019-01-18T22:32:20.913Z,135.07
2019-01-18T22:35:21.212Z,132.27
2019-01-18T22:38:00.975Z,124.70
2019-01-18T22:41:10.183Z,143.77
2019-01-18T22:44:17.652Z,133.83
2019-01-18T22:47:19.778Z,126.63
2019-01-18T22:50:02.673Z,148.67
2019-01-18T22:52:41.094Z,151.70
2019-01-18T22:55:54.278Z,136.90
2019-01-18T22:58:50.382Z,173.50
2019-01-18T23:01:39.731Z,184.50
2019-01-18T23:04:36.289Z,188.33
2019-01-18T23:07:43.448Z,150.20
2019-01-18T23:10:37.654Z,180.27
2019-01-18T23:14:01.707Z,178.63
2019-01-18T23:17:09.297Z,172.83
2019-01-18T23:20:28.942Z,176.63
2019-01-18T23:23:53.358Z,183.83
2019-01-18T23:27:13.554Z,193.93
2019-01-18T23:29:49.421Z,180.10
2019-01-18T23:32:28.022Z,196.77
2019-01-18T23:35:17.639Z,195.20
2019-01-18T23:38:36.417Z,202.63
2019-01-18T23:41:48.885Z,212.83
2019-01-18T23:45:14.439Z,192.53
2019-01-18T23:48:12.863Z,179.13
2019-01-18T23:51:15.147Z,170.33
2019-01-18T23:54:15.393Z,170.40
2019-01-18T23:57:11.565Z,183.80
